Pagina principale
METAR-TAF:

METAR-TAF

Aeroporti :

Payerne, Svizzera

latitudine: 46-49N, longitudine: 006-57E, altezza: 490 m

Osservazione

Il bollettino è stato emesso 30 minuti fa, alle 07:50 UTC
Vento calmo
Temperature -1°C
Umidità 93%
Pressione 1016 hPa
Visibilità 10 km o più
Nubi sparse ad un'altezza di 9300 ft
Nuvoloso ad un'altezza di 11000 ft
Nuvoloso ad un'altezza di 14000 ft

METAR: LSMP 110750Z 00000KT 9999 SCT093 BKN110 BKN140 M01/M02 Q1016 RMK BLU

Ora: 09:20 (08:20 UTC)


TAF: mancante

Osservazioni e previsioni meteorologiche di più di 4000 aeroporti (messaggi METAR e TAF).

Le stazioni disponibili sono rappresentate dai dischi gialli e rossi sulla carta.

Puntare il mouse per vedere il nome della stazione.

Clicca sopra per visualizzare le osservazioni e previsioni meteorologiche.

Per cambiare la mappa : fare clic sui pulsanti verdi con una croce nera per ingrandire, il pulsante verde con un trattino per diminuire, o sulla freccia verde per le mappe adiacenti.


METAR-TAF: